Time;durP1;ratioP1;P1;durP2;ratioP2;P2;SDS_P1;SDS_P2;PMS_P1;PMS_P2;Temp;Humidity;BMP_temperature;BMP_pressure;BME280_temperature;BME280_humidity;BME280_pressure;Samples;Min_cycle;Max_cycle;Signal;HPM_P1;HPM_P2
2023/09/20 00:02:13;;;;;;;6.50;5.00;;;;;;;19.52;50.72;99650.16;105569;1254;60443;-73
2023/09/20 00:04:47;;;;;;;7.00;5.60;;;;;;;19.51;50.77;99655.09;108413;1254;60032;-74
2023/09/20 00:07:16;;;;;;;5.80;4.90;;;;;;;19.49;50.97;99655.02;107281;1257;71761;-75
2023/09/20 00:09:43;;;;;;;7.00;5.40;;;;;;;19.47;51.16;99664.91;105564;1254;70076;-74
2023/09/20 00:12:11;;;;;;;5.70;5.10;;;;;;;19.45;51.22;99660.13;105523;1260;70780;-75
2023/09/20 00:14:38;;;;;;;7.50;5.10;;;;;;;19.43;51.48;99660.13;105981;1257;60556;-75
2023/09/20 00:17:06;;;;;;;6.50;5.20;;;;;;;19.42;51.50;99664.23;105852;1260;59672;-74
2023/09/20 00:19:38;;;;;;;8.40;5.80;;;;;;;19.40;51.53;99663.22;105546;1254;73011;-73
2023/09/20 00:22:05;;;;;;;8.20;5.70;;;;;;;19.39;51.76;99671.86;105698;1254;70055;-74
2023/09/20 00:24:33;;;;;;;6.60;5.20;;;;;;;19.37;51.82;99668.91;105543;1258;74196;-75
2023/09/20 00:27:01;;;;;;;7.60;5.20;;;;;;;19.36;51.97;99666.71;105699;1258;59737;-76
2023/09/20 00:29:28;;;;;;;7.60;5.30;;;;;;;19.35;52.10;99664.11;105546;1259;60334;-74
2023/09/20 00:31:56;;;;;;;7.00;5.70;;;;;;;19.34;52.20;99663.27;105698;1254;71024;-75
2023/09/20 00:34:24;;;;;;;10.10;5.20;;;;;;;19.34;52.42;99666.38;105441;1254;70009;-74
2023/09/20 00:36:51;;;;;;;7.20;5.10;;;;;;;19.34;52.56;99668.86;105566;1260;71416;-74
2023/09/20 00:39:18;;;;;;;7.10;5.40;;;;;;;19.34;52.52;99665.41;105396;1260;59936;-74
2023/09/20 00:41:48;;;;;;;9.70;5.50;;;;;;;19.34;52.66;99664.67;105755;1255;59643;-72
2023/09/20 00:44:15;;;;;;;6.60;4.70;;;;;;;19.34;52.77;99668.82;105648;1254;71971;-72
2023/09/20 00:46:44;;;;;;;6.90;4.50;;;;;;;19.34;52.74;99663.47;105676;1254;70095;-73
2023/09/20 00:49:12;;;;;;;8.00;5.40;;;;;;;19.33;52.81;99666.38;105746;1259;72557;-73
2023/09/20 00:51:40;;;;;;;6.60;5.40;;;;;;;19.33;52.91;99666.79;105893;1254;60031;-73
2023/09/20 00:54:08;;;;;;;7.50;5.40;;;;;;;19.32;53.14;99672.37;105620;1260;59654;-71
2023/09/20 00:56:36;;;;;;;8.00;5.20;;;;;;;19.31;53.11;99668.52;105541;1254;71773;-72
2023/09/20 00:59:06;;;;;;;9.80;5.50;;;;;;;19.30;53.20;99671.56;105673;1259;68794;-73
2023/09/20 01:01:34;;;;;;;5.20;4.70;;;;;;;19.29;53.29;99674.81;105834;1260;71129;-73
2023/09/20 01:04:03;;;;;;;7.30;5.00;;;;;;;19.28;53.46;99678.16;105526;1254;60282;-72
2023/09/20 01:06:32;;;;;;;6.20;5.00;;;;;;;19.27;53.50;99672.39;105612;1260;59618;-72
2023/09/20 01:08:59;;;;;;;8.40;5.50;;;;;;;19.26;53.55;99678.45;105637;1254;73035;-72
2023/09/20 01:11:27;;;;;;;9.20;5.10;;;;;;;19.24;53.61;99681.36;105615;1254;69119;-72
2023/09/20 01:13:55;;;;;;;6.50;4.80;;;;;;;19.23;53.87;99685.90;108192;1253;73796;-71
2023/09/20 01:16:22;;;;;;;6.00;5.10;;;;;;;19.22;54.00;99685.67;108842;1253;59548;-71
2023/09/20 01:18:50;;;;;;;7.50;4.60;;;;;;;19.21;54.14;99689.41;105991;1256;59649;-74
2023/09/20 01:21:19;;;;;;;6.50;4.90;;;;;;;19.20;54.33;99696.25;106348;1257;73045;-72
2023/09/20 01:23:49;;;;;;;8.70;4.90;;;;;;;19.19;54.39;99695.81;105431;1257;68685;-74
2023/09/20 01:26:16;;;;;;;8.70;5.20;;;;;;;19.17;54.67;99702.05;105589;1257;72691;-74
2023/09/20 01:28:44;;;;;;;4.80;4.40;;;;;;;19.16;54.87;99699.23;105383;1259;59756;-75
2023/09/20 01:31:12;;;;;;;5.90;4.90;;;;;;;19.14;55.39;99703.70;105596;1257;60048;-75
2023/09/20 01:33:39;;;;;;;5.90;5.30;;;;;;;19.10;56.30;99698.36;105607;1254;73274;-72
2023/09/20 01:36:07;;;;;;;11.20;5.30;;;;;;;19.04;56.59;99705.69;105579;1259;69552;-74
2023/09/20 01:38:34;;;;;;;7.40;5.10;;;;;;;18.98;57.02;99706.41;105625;1254;72529;-74
2023/09/20 01:41:05;;;;;;;5.50;4.90;;;;;;;18.92;57.30;99706.98;105897;1254;60394;-73
2023/09/20 01:43:34;;;;;;;7.90;6.00;;;;;;;18.86;57.28;99706.94;105477;1254;59648;-73
2023/09/20 01:46:03;;;;;;;6.90;5.20;;;;;;;18.81;57.14;99706.38;105667;1254;73051;-73
2023/09/20 01:48:31;;;;;;;9.90;5.20;;;;;;;18.78;57.05;99711.92;105667;1256;70086;-72
2023/09/20 01:50:58;;;;;;;5.60;5.00;;;;;;;18.76;57.11;99715.17;105523;1258;72470;-72
2023/09/20 01:53:26;;;;;;;6.30;5.80;;;;;;;18.73;57.19;99706.55;105568;1259;59752;-74
2023/09/20 01:55:54;;;;;;;7.10;5.30;;;;;;;18.72;57.15;99703.71;105723;1257;60092;-72
2023/09/20 01:58:23;;;;;;;7.90;5.10;;;;;;;18.71;57.48;99707.16;105419;1253;71718;-73
2023/09/20 02:00:51;;;;;;;6.60;5.80;;;;;;;18.70;57.56;99706.25;105475;1259;70413;-73
2023/09/20 02:03:19;;;;;;;6.60;5.90;;;;;;;18.68;57.45;99698.36;106068;1255;71448;-73
2023/09/20 02:05:48;;;;;;;10.20;5.90;;;;;;;18.67;57.57;99706.48;108262;1253;59993;-71
2023/09/20 02:08:17;;;;;;;10.60;5.80;;;;;;;18.68;57.96;99718.81;105791;1254;59735;-72
2023/09/20 02:10:45;;;;;;;6.80;5.00;;;;;;;18.67;58.23;99705.86;105566;1253;73209;-75
2023/09/20 02:13:16;;;;;;;8.20;5.70;;;;;;;18.65;58.52;99708.98;105785;1258;68703;-71
2023/09/20 02:15:45;;;;;;;6.90;5.60;;;;;;;18.63;58.38;99704.52;105455;1260;71719;-74
2023/09/20 02:18:12;;;;;;;5.70;5.10;;;;;;;18.62;58.54;99709.10;105636;1253;60455;-73
2023/09/20 02:20:40;;;;;;;7.50;5.20;;;;;;;18.61;58.56;99707.84;105594;1256;60510;-75
2023/09/20 02:23:12;;;;;;;5.80;5.20;;;;;;;18.60;58.91;99709.41;105615;1253;73025;-74
2023/09/20 02:25:43;;;;;;;5.50;4.80;;;;;;;18.58;59.07;99703.06;105578;1254;69998;-75
2023/09/20 02:28:11;;;;;;;6.50;5.40;;;;;;;18.55;59.07;99694.80;105817;1254;72474;-72
2023/09/20 02:30:41;;;;;;;5.70;5.10;;;;;;;18.54;59.29;99703.20;105920;1254;60451;-75
2023/09/20 02:33:10;;;;;;;8.10;5.30;;;;;;;18.52;59.32;99696.11;105513;1254;60411;-75
2023/09/20 02:35:39;;;;;;;7.00;5.60;;;;;;;18.52;59.63;99698.02;105530;1254;73869;-74
2023/09/20 02:38:09;;;;;;;5.90;4.70;;;;;;;18.49;59.86;99701.98;105625;1254;70027;-75
2023/09/20 02:40:37;;;;;;;6.30;5.30;;;;;;;18.46;59.94;99703.07;105527;1260;71450;-74
2023/09/20 02:43:08;;;;;;;6.20;5.40;;;;;;;18.44;59.97;99704.99;105411;1254;60622;-75
2023/09/20 02:45:39;;;;;;;8.30;5.50;;;;;;;18.44;59.72;99701.07;105671;1254;60543;-74
2023/09/20 02:48:08;;;;;;;7.40;5.50;;;;;;;18.43;59.74;99701.74;105500;1257;72852;-74
2023/09/20 02:50:36;;;;;;;8.20;5.70;;;;;;;18.41;59.68;99702.01;105574;1256;70077;-72
2023/09/20 02:53:05;;;;;;;8.40;5.90;;;;;;;18.40;59.62;99702.35;105599;1259;71486;-75
2023/09/20 02:55:34;;;;;;;10.30;6.50;;;;;;;18.36;59.78;99706.06;105435;1259;60575;-75
2023/09/20 02:58:02;;;;;;;7.20;5.90;;;;;;;18.32;60.16;99702.34;105555;1257;60432;-75
2023/09/20 03:00:32;;;;;;;7.60;5.60;;;;;;;18.26;60.85;99702.34;105629;1254;73902;-75
2023/09/20 03:03:01;;;;;;;7.20;6.00;;;;;;;18.20;61.44;99702.84;105770;1260;68905;-73
2023/09/20 03:05:34;;;;;;;6.70;5.90;;;;;;;18.11;62.06;99704.41;105513;1259;72717;-72
2023/09/20 03:08:11;;;;;;;11.30;6.20;;;;;;;17.96;62.49;99702.89;106074;1254;60463;-74
2023/09/20 03:10:43;;;;;;;8.90;5.30;;;;;;;17.82;63.40;99708.25;106464;1254;60421;-72
2023/09/20 03:13:16;;;;;;;6.80;6.10;;;;;;;17.69;63.99;99703.11;106606;1253;73979;-75
2023/09/20 03:15:48;;;;;;;7.10;6.40;;;;;;;17.58;64.49;99703.71;105895;1254;69495;-74
2023/09/20 03:18:22;;;;;;;6.70;5.80;;;;;;;17.49;64.93;99700.71;105585;1254;72739;-72
2023/09/20 03:20:54;;;;;;;8.20;6.20;;;;;;;17.41;65.67;99697.77;105787;1254;60568;-73
2023/09/20 03:23:22;;;;;;;9.30;5.50;;;;;;;17.34;65.88;99698.41;105626;1260;60376;-73
2023/09/20 03:25:50;;;;;;;8.00;5.00;;;;;;;17.29;66.11;99698.23;105512;1254;72660;-74
2023/09/20 03:28:22;;;;;;;6.80;5.50;;;;;;;17.32;66.70;99698.80;105623;1258;69780;-74
2023/09/20 03:30:51;;;;;;;7.00;6.20;;;;;;;17.24;66.78;99697.34;105507;1254;72775;-74
2023/09/20 03:33:21;;;;;;;7.70;6.20;;;;;;;17.11;67.46;99693.92;105512;1254;60572;-73
2023/09/20 03:35:51;;;;;;;7.40;5.90;;;;;;;17.00;67.78;99682.69;105694;1256;60399;-72
2023/09/20 03:38:19;;;;;;;11.90;8.40;;;;;;;16.95;68.17;99685.17;105605;1254;73030;-73
2023/09/20 03:40:47;;;;;;;8.10;6.20;;;;;;;16.90;69.04;99686.80;105642;1258;70534;-73
2023/09/20 03:43:15;;;;;;;7.30;5.90;;;;;;;16.82;69.71;99682.11;105629;1256;72742;-74
2023/09/20 03:45:47;;;;;;;6.90;5.70;;;;;;;16.78;69.83;99681.27;105543;1258;60766;-73
2023/09/20 03:48:16;;;;;;;8.80;5.70;;;;;;;16.82;70.26;99688.96;105729;1259;60412;-73
2023/09/20 03:50:45;;;;;;;7.40;6.30;;;;;;;16.80;70.78;99688.17;105594;1253;72272;-72
2023/09/20 03:53:13;;;;;;;6.90;6.10;;;;;;;16.69;71.57;99697.35;105675;1254;70387;-72
2023/09/20 03:55:46;;;;;;;7.00;6.00;;;;;;;16.58;72.44;99695.80;105416;1257;70763;-71
2023/09/20 03:58:13;;;;;;;7.50;6.10;;;;;;;16.47;73.37;99690.56;105400;1260;60515;-74
2023/09/20 04:00:42;;;;;;;7.70;6.10;;;;;;;16.46;74.00;99687.77;105476;1254;60512;-76
2023/09/20 04:03:11;;;;;;;8.00;6.80;;;;;;;16.46;74.66;99690.08;105952;1253;73880;-74
2023/09/20 04:05:39;;;;;;;8.30;6.80;;;;;;;16.41;75.67;99696.42;107682;1254;69975;-73
2023/09/20 04:08:18;;;;;;;8.00;7.20;;;;;;;16.34;76.67;99693.09;108152;1256;71368;-75
2023/09/20 04:10:46;;;;;;;7.10;5.70;;;;;;;16.28;77.47;99694.84;105528;1256;61721;-73
2023/09/20 04:13:17;;;;;;;7.90;6.10;;;;;;;16.28;77.97;99695.85;106021;1254;60549;-75
2023/09/20 04:15:45;;;;;;;7.90;7.10;;;;;;;16.27;78.41;99691.58;105806;1259;72562;-75
2023/09/20 04:18:13;;;;;;;9.40;6.80;;;;;;;16.20;78.91;99686.08;107131;1254;69899;-75
2023/09/20 04:20:48;;;;;;;8.80;6.70;;;;;;;16.15;79.45;99685.80;107375;1254;71405;-74
2023/09/20 04:23:20;;;;;;;8.70;6.50;;;;;;;16.19;79.79;99682.83;106362;1254;60497;-75
2023/09/20 04:25:47;;;;;;;6.80;6.20;;;;;;;16.20;79.96;99685.51;105535;1256;60348;-73
2023/09/20 04:28:15;;;;;;;7.20;5.80;;;;;;;16.17;79.89;99688.46;105393;1254;72671;-74
2023/09/20 04:30:42;;;;;;;7.90;5.80;;;;;;;16.15;79.91;99688.19;105499;1253;69346;-73
2023/09/20 04:33:13;;;;;;;8.00;6.00;;;;;;;16.17;80.42;99690.61;105625;1257;72024;-73
2023/09/20 04:35:43;;;;;;;6.80;6.00;;;;;;;16.21;80.58;99691.65;105407;1259;61090;-74
2023/09/20 04:38:15;;;;;;;7.30;6.60;;;;;;;16.21;80.52;99690.32;105916;1257;60371;-75
2023/09/20 04:40:43;;;;;;;7.10;6.30;;;;;;;16.19;80.86;99695.70;105360;1253;72654;-75
2023/09/20 04:43:14;;;;;;;7.50;6.70;;;;;;;16.15;81.11;99691.20;105769;1259;69978;-74
2023/09/20 04:45:41;;;;;;;7.20;5.50;;;;;;;16.17;81.87;99686.98;105710;1254;70597;-73
2023/09/20 04:48:09;;;;;;;8.30;6.60;;;;;;;16.25;82.20;99686.00;105689;1256;60556;-76
2023/09/20 04:50:36;;;;;;;7.30;6.60;;;;;;;16.28;82.21;99687.33;105759;1254;60796;-74
2023/09/20 04:53:04;;;;;;;9.60;6.50;;;;;;;16.26;82.42;99685.27;105780;1259;73841;-72
2023/09/20 04:55:34;;;;;;;8.00;5.80;;;;;;;16.29;82.54;99688.52;105614;1258;70157;-74
2023/09/20 04:58:02;;;;;;;6.60;6.00;;;;;;;16.35;82.81;99692.80;105609;1257;70991;-74
2023/09/20 05:00:37;;;;;;;8.70;7.30;;;;;;;16.32;83.06;99695.32;105570;1258;61181;-73
2023/09/20 05:03:07;;;;;;;7.70;6.50;;;;;;;16.26;83.76;99697.09;105553;1254;60546;-76
2023/09/20 05:05:35;;;;;;;7.50;6.20;;;;;;;16.29;83.77;99708.47;105686;1254;73846;-74
2023/09/20 05:08:04;;;;;;;8.10;7.10;;;;;;;16.31;83.67;99706.54;105868;1253;69009;-73
2023/09/20 05:10:32;;;;;;;8.40;7.40;;;;;;;16.27;84.14;99704.89;105809;1257;71708;-76
2023/09/20 05:13:02;;;;;;;10.00;5.90;;;;;;;16.24;84.75;99704.27;105757;1255;60466;-75
2023/09/20 05:15:30;;;;;;;7.10;6.00;;;;;;;16.30;84.75;99704.19;105565;1254;60429;-75
2023/09/20 05:17:58;;;;;;;8.20;7.00;;;;;;;16.37;84.23;99702.41;106565;1254;73929;-74
2023/09/20 05:20:28;;;;;;;8.00;7.10;;;;;;;16.35;84.23;99697.09;107718;1254;68381;-75
2023/09/20 05:22:57;;;;;;;8.50;6.90;;;;;;;16.33;83.90;99694.55;106742;1254;70751;-74
2023/09/20 05:25:26;;;;;;;6.80;6.10;;;;;;;16.36;83.84;99696.44;106762;1256;61786;-73
2023/09/20 05:27:54;;;;;;;8.50;6.00;;;;;;;16.44;83.69;99697.42;106466;1254;60498;-75
2023/09/20 05:30:22;;;;;;;7.00;6.30;;;;;;;16.50;83.04;99703.10;106181;1256;73010;-74
2023/09/20 05:32:51;;;;;;;7.60;6.80;;;;;;;16.51;82.67;99697.41;105748;1254;70297;-75
2023/09/20 05:35:19;;;;;;;7.70;6.30;;;;;;;16.51;82.15;99704.52;106103;1257;73560;-74
2023/09/20 05:37:48;;;;;;;6.80;5.70;;;;;;;16.57;81.80;99709.36;105709;1258;60514;-74
2023/09/20 05:40:18;;;;;;;8.00;6.20;;;;;;;16.66;80.74;99706.39;105608;1254;60794;-73
2023/09/20 05:42:46;;;;;;;10.40;6.60;;;;;;;16.71;79.94;99706.92;105587;1254;74366;-75
2023/09/20 05:45:14;;;;;;;7.60;6.00;;;;;;;16.72;79.65;99703.73;105795;1259;69175;-76
2023/09/20 05:47:42;;;;;;;6.20;5.60;;;;;;;16.74;79.15;99700.98;105867;1254;71885;-76
2023/09/20 05:50:10;;;;;;;6.00;5.50;;;;;;;16.84;78.65;99707.33;105912;1256;60799;-74
2023/09/20 05:52:43;;;;;;;11.80;6.40;;;;;;;16.92;78.30;99708.68;105923;1254;60524;-75
2023/09/20 05:55:14;;;;;;;7.20;6.10;;;;;;;16.93;78.06;99710.63;105740;1254;73854;-75
2023/09/20 05:57:43;;;;;;;9.20;6.90;;;;;;;16.92;77.88;99710.50;105688;1259;69157;-75
2023/09/20 06:00:18;;;;;;;8.00;6.50;;;;;;;16.93;77.67;99714.99;105611;1255;71462;-76
2023/09/20 06:02:46;;;;;;;6.80;5.90;;;;;;;17.01;77.55;99711.63;105829;1259;60447;-76
2023/09/20 06:05:14;;;;;;;9.30;6.80;;;;;;;17.09;77.20;99705.62;105972;1256;60474;-75
2023/09/20 06:07:44;;;;;;;6.90;6.20;;;;;;;17.13;77.00;99716.09;105730;1252;71417;-75
2023/09/20 06:10:12;;;;;;;9.90;7.50;;;;;;;17.15;76.68;99713.48;105885;1259;68953;-76
2023/09/20 06:12:39;;;;;;;9.40;6.60;;;;;;;17.19;76.54;99713.39;105894;1254;72508;-75
2023/09/20 06:15:08;;;;;;;8.20;6.30;;;;;;;17.27;75.83;99725.54;105803;1254;62687;-76
2023/09/20 06:17:36;;;;;;;7.20;6.60;;;;;;;17.38;75.09;99722.95;105870;1254;60533;-77
2023/09/20 06:20:09;;;;;;;10.80;7.30;;;;;;;17.40;74.68;99724.42;105995;1254;72614;-74
2023/09/20 06:22:36;;;;;;;7.60;6.50;;;;;;;17.42;74.46;99727.26;105970;1253;69288;-78
2023/09/20 06:25:06;;;;;;;7.20;6.50;;;;;;;17.43;73.70;99732.25;105910;1254;71426;-78
2023/09/20 06:27:34;;;;;;;9.20;6.70;;;;;;;17.47;73.78;99730.70;106114;1253;60485;-78
2023/09/20 06:30:12;;;;;;;7.50;5.90;;;;;;;17.52;73.26;99733.67;106260;1256;60310;-76
2023/09/20 06:32:41;;;;;;;8.30;5.60;;;;;;;17.68;73.12;99735.23;108352;1254;72785;-77
2023/09/20 06:35:10;;;;;;;8.60;7.10;;;;;;;17.82;72.55;99735.34;107925;1254;69158;-76
2023/09/20 06:37:39;;;;;;;7.00;6.40;;;;;;;17.89;72.67;99738.67;107279;1254;71282;-78
2023/09/20 06:40:22;;;;;;;9.20;6.90;;;;;;;17.98;72.19;99744.69;106956;1254;60475;-76
2023/09/20 06:42:50;;;;;;;10.10;6.20;;;;;;;18.10;71.75;99743.37;106010;1259;60367;-78
2023/09/20 06:45:19;;;;;;;8.60;6.40;;;;;;;18.21;71.00;99747.89;105961;1254;72606;-77
2023/09/20 06:47:46;;;;;;;8.30;7.40;;;;;;;18.25;70.60;99751.04;105973;1254;68754;-77
2023/09/20 06:50:14;;;;;;;13.70;6.90;;;;;;;18.27;70.57;99748.66;106033;1256;71424;-77
2023/09/20 06:52:45;;;;;;;8.40;6.20;;;;;;;18.31;70.53;99751.37;105993;1259;60515;-76
2023/09/20 06:55:17;;;;;;;9.60;6.30;;;;;;;18.42;70.47;99745.45;105980;1254;60408;-76
2023/09/20 06:57:47;;;;;;;9.90;6.30;;;;;;;18.54;70.01;99746.58;105932;1260;74025;-76
2023/09/20 07:00:20;;;;;;;9.50;6.60;;;;;;;18.60;69.98;99742.52;106272;1258;70019;-77
2023/09/20 07:02:56;;;;;;;8.50;6.40;;;;;;;18.68;69.76;99748.62;106226;1256;71414;-77
2023/09/20 07:05:28;;;;;;;7.00;6.10;;;;;;;18.78;69.63;99747.39;106129;1254;60471;-78
2023/09/20 07:07:58;;;;;;;7.40;6.60;;;;;;;18.89;68.73;99755.48;106160;1256;60442;-78
2023/09/20 07:10:29;;;;;;;9.00;7.30;;;;;;;18.97;68.53;99746.49;106554;1254;72579;-78
2023/09/20 07:12:57;;;;;;;9.90;6.80;;;;;;;19.06;68.34;99745.79;106145;1257;70278;-78
2023/09/20 07:15:25;;;;;;;7.00;6.30;;;;;;;19.14;68.08;99745.96;106177;1253;72670;-78
2023/09/20 07:17:58;;;;;;;8.70;6.10;;;;;;;19.21;67.75;99749.61;106168;1253;61094;-76
2023/09/20 07:20:30;;;;;;;8.80;7.10;;;;;;;19.30;67.57;99749.66;106101;1253;60935;-76
2023/09/20 07:22:58;;;;;;;8.40;6.40;;;;;;;19.39;67.04;99756.93;106166;1256;73795;-77
2023/09/20 07:25:27;;;;;;;9.30;7.20;;;;;;;19.48;66.82;99752.52;106001;1260;70683;-77
2023/09/20 07:27:57;;;;;;;8.80;7.60;;;;;;;19.57;66.43;99757.38;106481;1254;71674;-77
2023/09/20 07:30:31;;;;;;;10.80;6.90;;;;;;;19.65;66.27;99758.20;106088;1254;60492;-78
2023/09/20 07:32:59;;;;;;;13.50;6.50;;;;;;;19.74;65.84;99760.92;105986;1257;60424;-77
2023/09/20 07:35:48;;;;;;;7.70;6.40;;;;;;;19.82;65.64;99765.86;105968;1254;73908;-77
2023/09/20 07:40:51;;;;;;;10.30;6.30;;;;;;;19.90;65.25;99767.21;108179;1254;71189;-78
2023/09/20 07:43:18;;;;;;;10.00;6.70;;;;;;;19.94;65.13;99763.36;107612;1254;60447;-75
2023/09/20 07:45:56;;;;;;;7.80;6.50;;;;;;;19.99;65.08;99763.65;106048;1253;60528;-77
2023/09/20 07:48:30;;;;;;;10.20;6.80;;;;;;;20.04;65.08;99765.63;105768;1260;72836;-76
2023/09/20 07:50:59;;;;;;;8.60;6.40;;;;;;;20.14;64.87;99771.96;105869;1258;68892;-76
2023/09/20 07:53:28;;;;;;;9.00;7.10;;;;;;;20.24;64.76;99769.97;106043;1254;73087;-76
2023/09/20 07:56:06;;;;;;;13.00;6.90;;;;;;;20.33;64.44;99772.63;105930;1254;60477;-76
2023/09/20 07:58:36;;;;;;;8.80;6.90;;;;;;;20.44;64.41;99771.17;105891;1253;60530;-75
2023/09/20 08:01:12;;;;;;;6.90;5.90;;;;;;;20.62;63.78;99769.99;105872;1253;72583;-76
2023/09/20 08:03:50;;;;;;;12.10;6.80;;;;;;;20.75;63.13;99779.05;105906;1257;72746;-75
2023/09/20 08:06:33;;;;;;;8.50;6.60;;;;;;;20.75;63.03;99776.15;105995;1256;71947;-77
2023/09/20 08:09:05;;;;;;;13.20;7.00;;;;;;;20.72;63.27;99772.67;106136;1253;60749;-76
2023/09/20 08:11:33;;;;;;;11.30;7.20;;;;;;;20.71;63.10;99784.05;105983;1259;60441;-79
2023/09/20 08:14:03;;;;;;;8.20;6.40;;;;;;;20.69;62.99;99783.48;105867;1254;73870;-78
2023/09/20 08:16:33;;;;;;;7.00;6.30;;;;;;;20.65;63.36;99784.29;105771;1254;70554;-76
2023/09/20 08:21:34;;;;;;;8.80;7.00;;;;;;;20.55;63.66;99792.77;105878;1254;60556;-77
2023/09/20 09:00:27;;;;;;;10.30;7.60;;;;;;;19.64;70.45;99782.79;106081;1254;72496;-78
2023/09/20 09:02:57;;;;;;;10.60;7.30;;;;;;;19.56;70.47;99784.14;105999;1259;60955;-78
2023/09/20 09:05:27;;;;;;;8.90;6.20;;;;;;;19.51;70.40;99801.17;105982;1254;60463;-77
2023/09/20 09:08:00;;;;;;;7.60;6.90;;;;;;;19.49;69.99;99794.48;105897;1258;75424;-77
2023/09/20 09:10:27;;;;;;;11.20;7.30;;;;;;;19.45;70.13;99784.14;106062;1254;70324;-77
2023/09/20 09:12:58;;;;;;;12.70;7.70;;;;;;;19.41;70.52;99785.92;106610;1254;70793;-77
2023/09/20 09:15:27;;;;;;;14.30;7.70;;;;;;;19.40;70.10;99785.48;106076;1257;60445;-78
2023/09/20 09:17:55;;;;;;;11.60;7.50;;;;;;;19.40;70.17;99787.27;106011;1254;60594;-77
2023/09/20 09:20:23;;;;;;;10.80;8.00;;;;;;;19.39;70.29;99781.64;105674;1260;73608;-79
2023/09/20 09:22:51;;;;;;;10.20;7.90;;;;;;;19.40;70.19;99779.47;106016;1254;71076;-77
2023/09/20 09:25:20;;;;;;;11.90;7.10;;;;;;;19.46;70.06;99780.61;106238;1253;74942;-77
2023/09/20 09:27:48;;;;;;;9.10;7.70;;;;;;;19.60;69.83;99783.59;106635;1253;60568;-78
2023/09/20 09:30:16;;;;;;;13.90;8.00;;;;;;;19.66;69.55;99783.05;106433;1253;60354;-77
2023/09/20 09:32:47;;;;;;;9.50;8.40;;;;;;;19.67;69.59;99786.05;106672;1254;73837;-77
2023/09/20 09:35:18;;;;;;;12.90;7.80;;;;;;;19.66;69.41;99800.00;107076;1253;69988;-77
2023/09/20 09:38:01;;;;;;;11.10;7.30;;;;;;;19.62;69.40;99797.27;106263;1254;70715;-78
2023/09/20 09:40:29;;;;;;;10.20;7.60;;;;;;;19.58;69.44;99800.95;106634;1254;60280;-78
2023/09/20 09:43:15;;;;;;;9.40;8.40;;;;;;;19.56;69.68;99793.33;106912;1258;59346;-77
2023/09/20 09:45:49;;;;;;;11.70;7.70;;;;;;;19.52;69.64;99801.25;106382;1253;73971;-77
2023/09/20 09:48:17;;;;;;;11.20;8.00;;;;;;;19.51;69.87;99793.10;106515;1258;70983;-79
2023/09/20 09:50:46;;;;;;;8.70;7.20;;;;;;;19.60;69.50;99790.55;106831;1253;71032;-77
2023/09/20 09:53:14;;;;;;;9.80;7.20;;;;;;;19.67;69.12;99793.23;106600;1254;60543;-76
2023/09/20 09:55:41;;;;;;;8.50;7.30;;;;;;;19.73;68.79;99795.73;107649;1253;59222;-78
2023/09/20 09:58:09;;;;;;;11.40;7.70;;;;;;;19.80;68.37;99797.17;108215;1253;74710;-77
2023/09/20 10:00:39;;;;;;;9.90;7.40;;;;;;;19.83;68.05;99806.33;106450;1254;69299;-77
2023/09/20 10:03:15;;;;;;;12.80;7.80;;;;;;;19.85;67.82;99804.11;106303;1254;71127;-78
2023/09/20 10:05:44;;;;;;;10.30;7.40;;;;;;;19.87;67.83;99801.77;106203;1254;62124;-77
2023/09/20 10:08:12;;;;;;;11.40;7.90;;;;;;;19.88;67.98;99794.58;105934;1253;60488;-77
2023/09/20 10:10:41;;;;;;;9.50;7.40;;;;;;;19.94;67.96;99797.28;105818;1258;75204;-78
2023/09/20 10:13:12;;;;;;;9.50;7.60;;;;;;;20.02;67.69;99791.84;105793;1253;69178;-78
2023/09/20 10:15:43;;;;;;;10.90;7.90;;;;;;;20.18;67.55;99787.88;105886;1257;72856;-76
2023/09/20 10:18:10;;;;;;;11.70;8.90;;;;;;;20.38;66.90;99786.55;105789;1256;60553;-78
2023/09/20 10:21:14;;;;;;;11.10;8.10;;;;;;;20.54;66.37;99793.86;105624;1260;181428;-79
2023/09/20 10:24:26;;;;;;;11.50;8.50;;;;;;;20.67;65.50;99786.49;102763;1292;600375;-80
2023/09/20 10:26:54;;;;;;;10.10;7.30;;;;;;;20.73;65.31;99786.89;105124;1271;61085;-77
2023/09/20 10:29:26;;;;;;;13.60;7.40;;;;;;;20.77;65.05;99785.97;104904;1267;62535;-79
2023/09/20 10:31:54;;;;;;;15.10;9.30;;;;;;;20.78;64.91;99790.14;105104;1270;72700;-79
2023/09/20 10:34:23;;;;;;;9.00;7.50;;;;;;;20.79;64.78;99784.17;105091;1270;69994;-78
2023/09/20 10:36:51;;;;;;;12.80;8.20;;;;;;;20.78;64.67;99789.39;104880;1270;182956;-77
2023/09/20 10:39:19;;;;;;;10.20;8.00;;;;;;;20.76;64.81;99779.10;105241;1267;60006;-78
2023/09/20 10:41:48;;;;;;;8.20;7.40;;;;;;;20.80;64.77;99781.24;106273;1261;60688;-78
2023/09/20 10:44:29;;;;;;;8.60;7.30;;;;;;;20.84;64.35;99789.15;105492;1260;71271;-77
2023/09/20 10:46:58;;;;;;;8.50;7.70;;;;;;;20.88;64.44;99784.27;105494;1266;68544;-78
2023/09/20 10:49:41;;;;;;;13.70;8.40;;;;;;;20.91;64.44;99784.96;105494;1264;74761;-77
2023/09/20 10:52:09;;;;;;;11.60;7.30;;;;;;;20.98;64.27;99785.88;105401;1267;59675;-78
2023/09/20 10:54:36;;;;;;;15.30;9.00;;;;;;;21.08;64.10;99780.84;105419;1266;59555;-76
2023/09/20 10:57:06;;;;;;;11.90;8.20;;;;;;;21.17;63.90;99782.77;106268;1259;73188;-77
2023/09/20 10:59:34;;;;;;;11.20;8.10;;;;;;;21.29;63.76;99777.09;106198;1260;69657;-79
2023/09/20 11:02:05;;;;;;;13.60;7.50;;;;;;;21.41;63.53;99775.23;106404;1257;72345;-78
2023/09/20 11:04:33;;;;;;;8.90;7.30;;;;;;;21.51;63.23;99776.26;108461;1253;60133;-77
2023/09/20 11:07:02;;;;;;;10.20;8.10;;;;;;;21.56;63.24;99781.30;108261;1254;59591;-78
2023/09/20 11:09:31;;;;;;;13.60;8.50;;;;;;;21.59;62.86;99780.61;106607;1257;73007;-80
2023/09/20 11:12:06;;;;;;;12.10;8.90;;;;;;;21.59;62.83;99775.45;105998;1258;69158;-77
2023/09/20 11:14:39;;;;;;;11.40;7.60;;;;;;;21.58;62.92;99773.66;105973;1257;71285;-77
2023/09/20 11:17:12;;;;;;;11.20;7.90;;;;;;;21.58;62.96;99773.39;105949;1254;61318;-78
2023/09/20 11:19:40;;;;;;;15.70;8.60;;;;;;;21.57;63.06;99771.38;106068;1251;59793;-77
2023/09/20 11:22:07;;;;;;;9.70;8.20;;;;;;;21.58;63.15;99775.08;105999;1258;73143;-77
2023/09/20 11:24:36;;;;;;;10.50;8.20;;;;;;;21.61;63.20;99765.94;105730;1259;69285;-77
2023/09/20 11:27:04;;;;;;;13.10;8.10;;;;;;;21.67;63.21;99764.41;105746;1260;72442;-78
2023/09/20 11:29:35;;;;;;;10.70;8.10;;;;;;;21.75;62.88;99770.20;105871;1254;62395;-78
2023/09/20 11:32:03;;;;;;;10.30;7.30;;;;;;;21.82;62.74;99768.86;105838;1254;60060;-74
2023/09/20 11:34:51;;;;;;;8.40;7.50;;;;;;;21.88;62.60;99766.77;105681;1254;72874;-76
2023/09/20 11:37:20;;;;;;;8.50;7.40;;;;;;;21.95;62.49;99764.45;105815;1254;69730;-75
2023/09/20 11:39:49;;;;;;;9.80;8.50;;;;;;;22.04;62.42;99763.60;105790;1257;72862;-76
2023/09/20 11:42:27;;;;;;;11.80;8.40;;;;;;;22.15;62.30;99762.11;105858;1259;59585;-77
2023/09/20 11:45:07;;;;;;;10.30;8.80;;;;;;;22.31;61.71;99768.16;105758;1254;59612;-76
2023/09/20 11:47:55;;;;;;;9.30;7.80;;;;;;;22.45;61.39;99762.28;105736;1260;73311;-76
2023/09/20 11:50:27;;;;;;;8.90;7.10;;;;;;;22.58;61.15;99766.86;105979;1254;70013;-75
2023/09/20 11:52:54;;;;;;;12.70;8.70;;;;;;;22.70;60.67;99760.70;105664;1257;72759;-75
2023/09/20 11:55:22;;;;;;;10.10;8.30;;;;;;;22.73;60.77;99758.73;105808;1253;60623;-75
2023/09/20 11:57:52;;;;;;;9.90;8.90;;;;;;;22.77;60.60;99759.57;105985;1254;62323;-75
2023/09/20 12:00:24;;;;;;;10.10;8.80;;;;;;;22.78;60.69;99751.86;105941;1254;73086;-77
2023/09/20 12:02:53;;;;;;;10.90;8.00;;;;;;;22.79;60.90;99758.52;105992;1254;71295;-76
2023/09/20 12:05:24;;;;;;;10.90;7.90;;;;;;;22.71;61.54;99761.86;105930;1254;71857;-77
2023/09/20 12:07:56;;;;;;;10.30;8.10;;;;;;;22.57;62.07;99765.33;106656;1254;60179;-76
2023/09/20 12:10:27;;;;;;;8.50;7.70;;;;;;;22.38;62.56;99766.98;107309;1257;59637;-76
2023/09/20 12:12:54;;;;;;;10.00;8.00;;;;;;;22.23;63.15;99761.67;107043;1254;72872;-75
2023/09/20 12:15:25;;;;;;;12.30;7.80;;;;;;;22.11;63.51;99771.73;107693;1256;69582;-76
2023/09/20 12:17:55;;;;;;;9.70;7.70;;;;;;;21.98;64.01;99769.88;106456;1254;74820;-75